sensor_id;sensor_type;location;lat;lon;timestamp;P1;P2;P0
54553;PMS5003;40450;55.848;-3.572;2023-08-17T00:00:14;11;11;
54553;PMS5003;40450;55.848;-3.572;2023-08-17T00:02:44;17;15;
54553;PMS5003;40450;55.848;-3.572;2023-08-17T00:05:14;14;12;
54553;PMS5003;40450;55.848;-3.572;2023-08-17T00:07:44;13;12;
54553;PMS5003;40450;55.848;-3.572;2023-08-17T00:10:15;16;14;
54553;PMS5003;40450;55.848;-3.572;2023-08-17T00:12:46;17;9;
54553;PMS5003;40450;55.848;-3.572;2023-08-17T00:15:17;15;12;
54553;PMS5003;40450;55.848;-3.572;2023-08-17T00:17:47;14;11;
54553;PMS5003;40450;55.848;-3.572;2023-08-17T00:20:17;17;14;
54553;PMS5003;40450;55.848;-3.572;2023-08-17T00:22:47;18;15;
54553;PMS5003;40450;55.848;-3.572;2023-08-17T00:25:18;21;17;
54553;PMS5003;40450;55.848;-3.572;2023-08-17T00:27:48;17;14;
54553;PMS5003;40450;55.848;-3.572;2023-08-17T00:30:18;15;15;
54553;PMS5003;40450;55.848;-3.572;2023-08-17T00:32:48;18;17;
54553;PMS5003;40450;55.848;-3.572;2023-08-17T00:35:19;19;17;
54553;PMS5003;40450;55.848;-3.572;2023-08-17T00:37:49;11;11;
54553;PMS5003;40450;55.848;-3.572;2023-08-17T00:40:19;20;17;
54553;PMS5003;40450;55.848;-3.572;2023-08-17T00:42:49;13;13;
54553;PMS5003;40450;55.848;-3.572;2023-08-17T00:45:21;21;17;
54553;PMS5003;40450;55.848;-3.572;2023-08-17T00:47:50;19;16;
54553;PMS5003;40450;55.848;-3.572;2023-08-17T00:50:25;23;21;
54553;PMS5003;40450;55.848;-3.572;2023-08-17T00:52:51;23;17;
54553;PMS5003;40450;55.848;-3.572;2023-08-17T00:55:21;19;17;
54553;PMS5003;40450;55.848;-3.572;2023-08-17T00:57:52;20;16;
54553;PMS5003;40450;55.848;-3.572;2023-08-17T01:00:22;14;13;
54553;PMS5003;40450;55.848;-3.572;2023-08-17T01:02:53;21;16;
54553;PMS5003;40450;55.848;-3.572;2023-08-17T01:05:23;16;15;
54553;PMS5003;40450;55.848;-3.572;2023-08-17T01:07:53;13;13;
54553;PMS5003;40450;55.848;-3.572;2023-08-17T01:10:23;15;14;
54553;PMS5003;40450;55.848;-3.572;2023-08-17T01:12:56;21;17;
54553;PMS5003;40450;55.848;-3.572;2023-08-17T01:15:26;17;15;
54553;PMS5003;40450;55.848;-3.572;2023-08-17T01:17:56;19;18;
54553;PMS5003;40450;55.848;-3.572;2023-08-17T01:20:25;19;17;
54553;PMS5003;40450;55.848;-3.572;2023-08-17T01:22:56;16;14;
54553;PMS5003;40450;55.848;-3.572;2023-08-17T01:25:26;15;14;
54553;PMS5003;40450;55.848;-3.572;2023-08-17T01:27:56;19;15;
54553;PMS5003;40450;55.848;-3.572;2023-08-17T01:30:33;15;13;
54553;PMS5003;40450;55.848;-3.572;2023-08-17T01:32:57;15;12;
54553;PMS5003;40450;55.848;-3.572;2023-08-17T01:35:28;19;16;
54553;PMS5003;40450;55.848;-3.572;2023-08-17T01:37:58;15;13;
54553;PMS5003;40450;55.848;-3.572;2023-08-17T01:40:27;18;14;
54553;PMS5003;40450;55.848;-3.572;2023-08-17T01:42:58;15;15;
54553;PMS5003;40450;55.848;-3.572;2023-08-17T01:45:28;17;15;
54553;PMS5003;40450;55.848;-3.572;2023-08-17T01:47:59;18;17;
54553;PMS5003;40450;55.848;-3.572;2023-08-17T01:50:29;17;15;
54553;PMS5003;40450;55.848;-3.572;2023-08-17T01:53:00;15;12;
54553;PMS5003;40450;55.848;-3.572;2023-08-17T01:55:30;14;14;
54553;PMS5003;40450;55.848;-3.572;2023-08-17T01:58:05;16;14;
54553;PMS5003;40450;55.848;-3.572;2023-08-17T02:00:30;15;14;
54553;PMS5003;40450;55.848;-3.572;2023-08-17T02:03:01;19;17;
54553;PMS5003;40450;55.848;-3.572;2023-08-17T02:05:31;20;19;
54553;PMS5003;40450;55.848;-3.572;2023-08-17T02:08:01;15;15;
54553;PMS5003;40450;55.848;-3.572;2023-08-17T02:10:32;19;16;
54553;PMS5003;40450;55.848;-3.572;2023-08-17T02:13:02;17;15;
54553;PMS5003;40450;55.848;-3.572;2023-08-17T02:15:32;15;14;
54553;PMS5003;40450;55.848;-3.572;2023-08-17T02:18:03;18;16;
54553;PMS5003;40450;55.848;-3.572;2023-08-17T02:20:33;16;16;
54553;PMS5003;40450;55.848;-3.572;2023-08-17T02:23:03;14;14;
54553;PMS5003;40450;55.848;-3.572;2023-08-17T02:25:37;14;14;
54553;PMS5003;40450;55.848;-3.572;2023-08-17T02:28:05;15;14;
54553;PMS5003;40450;55.848;-3.572;2023-08-17T02:30:35;19;16;
54553;PMS5003;40450;55.848;-3.572;2023-08-17T02:33:06;15;13;
54553;PMS5003;40450;55.848;-3.572;2023-08-17T02:35:37;22;21;
54553;PMS5003;40450;55.848;-3.572;2023-08-17T02:38:07;17;16;
54553;PMS5003;40450;55.848;-3.572;2023-08-17T02:40:38;16;16;
54553;PMS5003;40450;55.848;-3.572;2023-08-17T02:43:08;13;13;
54553;PMS5003;40450;55.848;-3.572;2023-08-17T02:45:38;16;14;
54553;PMS5003;40450;55.848;-3.572;2023-08-17T02:48:08;17;14;
54553;PMS5003;40450;55.848;-3.572;2023-08-17T02:50:38;20;19;
54553;PMS5003;40450;55.848;-3.572;2023-08-17T02:53:08;12;12;
54553;PMS5003;40450;55.848;-3.572;2023-08-17T02:55:39;13;11;
54553;PMS5003;40450;55.848;-3.572;2023-08-17T02:58:09;12;12;
54553;PMS5003;40450;55.848;-3.572;2023-08-17T03:00:39;15;12;
54553;PMS5003;40450;55.848;-3.572;2023-08-17T03:03:10;12;10;
54553;PMS5003;40450;55.848;-3.572;2023-08-17T03:05:40;14;14;
54553;PMS5003;40450;55.848;-3.572;2023-08-17T03:08:10;15;11;
54553;PMS5003;40450;55.848;-3.572;2023-08-17T03:10:40;13;12;
54553;PMS5003;40450;55.848;-3.572;2023-08-17T03:13:11;15;13;
54553;PMS5003;40450;55.848;-3.572;2023-08-17T03:15:41;12;12;
54553;PMS5003;40450;55.848;-3.572;2023-08-17T03:18:11;14;10;
54553;PMS5003;40450;55.848;-3.572;2023-08-17T03:20:42;15;13;
54553;PMS5003;40450;55.848;-3.572;2023-08-17T03:23:13;13;11;
54553;PMS5003;40450;55.848;-3.572;2023-08-17T03:25:43;13;11;
54553;PMS5003;40450;55.848;-3.572;2023-08-17T03:28:14;10;9;
54553;PMS5003;40450;55.848;-3.572;2023-08-17T03:30:44;10;10;
54553;PMS5003;40450;55.848;-3.572;2023-08-17T03:33:14;16;16;
54553;PMS5003;40450;55.848;-3.572;2023-08-17T03:35:44;15;15;
54553;PMS5003;40450;55.848;-3.572;2023-08-17T03:38:15;11;11;
54553;PMS5003;40450;55.848;-3.572;2023-08-17T03:40:45;10;10;
54553;PMS5003;40450;55.848;-3.572;2023-08-17T03:43:15;8;6;
54553;PMS5003;40450;55.848;-3.572;2023-08-17T03:45:45;9;9;
54553;PMS5003;40450;55.848;-3.572;2023-08-17T03:48:16;10;9;
54553;PMS5003;40450;55.848;-3.572;2023-08-17T03:50:46;11;10;
54553;PMS5003;40450;55.848;-3.572;2023-08-17T03:53:17;10;7;
54553;PMS5003;40450;55.848;-3.572;2023-08-17T03:55:47;8;7;
54553;PMS5003;40450;55.848;-3.572;2023-08-17T03:58:17;10;9;
54553;PMS5003;40450;55.848;-3.572;2023-08-17T04:00:49;8;7;
54553;PMS5003;40450;55.848;-3.572;2023-08-17T04:03:18;6;6;
54553;PMS5003;40450;55.848;-3.572;2023-08-17T04:05:48;6;6;
54553;PMS5003;40450;55.848;-3.572;2023-08-17T04:08:18;5;5;
54553;PMS5003;40450;55.848;-3.572;2023-08-17T04:10:49;6;6;
54553;PMS5003;40450;55.848;-3.572;2023-08-17T04:13:19;7;7;
54553;PMS5003;40450;55.848;-3.572;2023-08-17T04:15:50;7;5;
54553;PMS5003;40450;55.848;-3.572;2023-08-17T04:18:20;10;8;
54553;PMS5003;40450;55.848;-3.572;2023-08-17T04:20:50;6;6;
54553;PMS5003;40450;55.848;-3.572;2023-08-17T04:23:21;6;6;
54553;PMS5003;40450;55.848;-3.572;2023-08-17T04:25:51;8;6;
54553;PMS5003;40450;55.848;-3.572;2023-08-17T04:28:21;6;6;
54553;PMS5003;40450;55.848;-3.572;2023-08-17T04:30:52;7;7;
54553;PMS5003;40450;55.848;-3.572;2023-08-17T04:33:22;5;5;
54553;PMS5003;40450;55.848;-3.572;2023-08-17T04:35:52;9;7;
54553;PMS5003;40450;55.848;-3.572;2023-08-17T04:38:23;7;6;
54553;PMS5003;40450;55.848;-3.572;2023-08-17T04:40:53;3;3;
54553;PMS5003;40450;55.848;-3.572;2023-08-17T04:43:23;6;6;
54553;PMS5003;40450;55.848;-3.572;2023-08-17T04:45:54;5;5;
54553;PMS5003;40450;55.848;-3.572;2023-08-17T04:48:24;5;5;
54553;PMS5003;40450;55.848;-3.572;2023-08-17T04:50:54;9;8;
54553;PMS5003;40450;55.848;-3.572;2023-08-17T04:53:25;5;5;
54553;PMS5003;40450;55.848;-3.572;2023-08-17T04:55:55;4;4;
54553;PMS5003;40450;55.848;-3.572;2023-08-17T04:58:26;5;5;
54553;PMS5003;40450;55.848;-3.572;2023-08-17T05:00:56;8;7;
54553;PMS5003;40450;55.848;-3.572;2023-08-17T05:03:27;11;8;
54553;PMS5003;40450;55.848;-3.572;2023-08-17T05:05:57;5;5;
54553;PMS5003;40450;55.848;-3.572;2023-08-17T05:08:27;6;6;
54553;PMS5003;40450;55.848;-3.572;2023-08-17T05:10:58;5;5;
54553;PMS5003;40450;55.848;-3.572;2023-08-17T05:13:28;8;8;
54553;PMS5003;40450;55.848;-3.572;2023-08-17T05:15:58;6;4;
54553;PMS5003;40450;55.848;-3.572;2023-08-17T05:18:29;7;6;
54553;PMS5003;40450;55.848;-3.572;2023-08-17T05:20:59;8;7;
54553;PMS5003;40450;55.848;-3.572;2023-08-17T05:23:30;8;7;
54553;PMS5003;40450;55.848;-3.572;2023-08-17T05:26:00;5;5;
54553;PMS5003;40450;55.848;-3.572;2023-08-17T05:28:30;7;6;
54553;PMS5003;40450;55.848;-3.572;2023-08-17T05:31:02;7;7;
54553;PMS5003;40450;55.848;-3.572;2023-08-17T05:33:31;12;9;
54553;PMS5003;40450;55.848;-3.572;2023-08-17T05:36:01;8;8;
54553;PMS5003;40450;55.848;-3.572;2023-08-17T05:38:32;10;9;
54553;PMS5003;40450;55.848;-3.572;2023-08-17T05:41:03;7;7;
54553;PMS5003;40450;55.848;-3.572;2023-08-17T05:43:33;11;9;
54553;PMS5003;40450;55.848;-3.572;2023-08-17T05:46:04;8;8;
54553;PMS5003;40450;55.848;-3.572;2023-08-17T05:48:34;11;9;
54553;PMS5003;40450;55.848;-3.572;2023-08-17T05:51:04;10;9;
54553;PMS5003;40450;55.848;-3.572;2023-08-17T05:53:34;9;7;
54553;PMS5003;40450;55.848;-3.572;2023-08-17T05:56:04;15;11;
54553;PMS5003;40450;55.848;-3.572;2023-08-17T05:58:34;6;6;
54553;PMS5003;40450;55.848;-3.572;2023-08-17T06:01:05;10;8;
54553;PMS5003;40450;55.848;-3.572;2023-08-17T06:03:35;13;10;
54553;PMS5003;40450;55.848;-3.572;2023-08-17T06:06:05;8;8;
54553;PMS5003;40450;55.848;-3.572;2023-08-17T06:08:35;11;8;
54553;PMS5003;40450;55.848;-3.572;2023-08-17T06:11:06;8;7;
54553;PMS5003;40450;55.848;-3.572;2023-08-17T06:13:36;7;7;
54553;PMS5003;40450;55.848;-3.572;2023-08-17T06:16:06;11;11;
54553;PMS5003;40450;55.848;-3.572;2023-08-17T06:18:37;10;10;
54553;PMS5003;40450;55.848;-3.572;2023-08-17T06:21:07;11;9;
54553;PMS5003;40450;55.848;-3.572;2023-08-17T06:23:37;7;7;
54553;PMS5003;40450;55.848;-3.572;2023-08-17T06:26:08;9;9;
54553;PMS5003;40450;55.848;-3.572;2023-08-17T06:28:38;11;10;
54553;PMS5003;40450;55.848;-3.572;2023-08-17T06:31:08;9;8;
54553;PMS5003;40450;55.848;-3.572;2023-08-17T06:33:38;10;10;
54553;PMS5003;40450;55.848;-3.572;2023-08-17T06:36:09;11;8;
54553;PMS5003;40450;55.848;-3.572;2023-08-17T06:38:40;11;9;
54553;PMS5003;40450;55.848;-3.572;2023-08-17T06:41:11;11;8;
54553;PMS5003;40450;55.848;-3.572;2023-08-17T06:43:41;12;7;
54553;PMS5003;40450;55.848;-3.572;2023-08-17T06:46:11;13;12;
54553;PMS5003;40450;55.848;-3.572;2023-08-17T06:48:42;9;9;
54553;PMS5003;40450;55.848;-3.572;2023-08-17T06:51:12;9;9;
54553;PMS5003;40450;55.848;-3.572;2023-08-17T06:53:42;8;8;
54553;PMS5003;40450;55.848;-3.572;2023-08-17T06:56:13;8;8;
54553;PMS5003;40450;55.848;-3.572;2023-08-17T06:58:43;7;7;
54553;PMS5003;40450;55.848;-3.572;2023-08-17T07:01:13;9;9;
54553;PMS5003;40450;55.848;-3.572;2023-08-17T07:03:43;12;11;
54553;PMS5003;40450;55.848;-3.572;2023-08-17T07:06:14;7;7;
54553;PMS5003;40450;55.848;-3.572;2023-08-17T07:08:44;12;10;
54553;PMS5003;40450;55.848;-3.572;2023-08-17T07:11:15;15;11;
54553;PMS5003;40450;55.848;-3.572;2023-08-17T07:13:45;14;9;
54553;PMS5003;40450;55.848;-3.572;2023-08-17T07:16:15;10;10;
54553;PMS5003;40450;55.848;-3.572;2023-08-17T07:18:45;9;7;
54553;PMS5003;40450;55.848;-3.572;2023-08-17T07:21:16;9;8;
54553;PMS5003;40450;55.848;-3.572;2023-08-17T07:23:47;14;12;
54553;PMS5003;40450;55.848;-3.572;2023-08-17T07:26:17;12;11;
54553;PMS5003;40450;55.848;-3.572;2023-08-17T07:28:48;7;7;
54553;PMS5003;40450;55.848;-3.572;2023-08-17T07:31:18;13;8;
54553;PMS5003;40450;55.848;-3.572;2023-08-17T07:33:48;15;11;
54553;PMS5003;40450;55.848;-3.572;2023-08-17T07:36:18;9;8;
54553;PMS5003;40450;55.848;-3.572;2023-08-17T07:38:48;8;8;
54553;PMS5003;40450;55.848;-3.572;2023-08-17T07:41:19;12;10;
54553;PMS5003;40450;55.848;-3.572;2023-08-17T07:43:49;10;9;
54553;PMS5003;40450;55.848;-3.572;2023-08-17T07:46:19;11;10;
54553;PMS5003;40450;55.848;-3.572;2023-08-17T07:48:49;11;11;
54553;PMS5003;40450;55.848;-3.572;2023-08-17T07:51:20;10;10;
54553;PMS5003;40450;55.848;-3.572;2023-08-17T07:53:50;9;9;
54553;PMS5003;40450;55.848;-3.572;2023-08-17T07:56:20;8;8;
54553;PMS5003;40450;55.848;-3.572;2023-08-17T07:58:51;8;7;
54553;PMS5003;40450;55.848;-3.572;2023-08-17T08:01:21;11;9;
54553;PMS5003;40450;55.848;-3.572;2023-08-17T08:03:51;9;9;
54553;PMS5003;40450;55.848;-3.572;2023-08-17T08:06:22;10;9;
54553;PMS5003;40450;55.848;-3.572;2023-08-17T08:08:52;13;11;
54553;PMS5003;40450;55.848;-3.572;2023-08-17T08:11:23;11;11;
54553;PMS5003;40450;55.848;-3.572;2023-08-17T08:13:53;8;6;
54553;PMS5003;40450;55.848;-3.572;2023-08-17T08:16:24;10;9;
54553;PMS5003;40450;55.848;-3.572;2023-08-17T08:18:54;14;12;
54553;PMS5003;40450;55.848;-3.572;2023-08-17T08:21:24;10;8;
54553;PMS5003;40450;55.848;-3.572;2023-08-17T08:23:54;10;9;
54553;PMS5003;40450;55.848;-3.572;2023-08-17T08:26:24;11;10;
54553;PMS5003;40450;55.848;-3.572;2023-08-17T08:28:55;10;10;
54553;PMS5003;40450;55.848;-3.572;2023-08-17T08:31:25;9;9;
54553;PMS5003;40450;55.848;-3.572;2023-08-17T08:33:55;13;8;
54553;PMS5003;40450;55.848;-3.572;2023-08-17T08:36:26;10;8;
54553;PMS5003;40450;55.848;-3.572;2023-08-17T08:38:56;9;9;
54553;PMS5003;40450;55.848;-3.572;2023-08-17T08:41:27;12;9;
54553;PMS5003;40450;55.848;-3.572;2023-08-17T08:43:57;10;10;
54553;PMS5003;40450;55.848;-3.572;2023-08-17T08:46:27;7;7;
54553;PMS5003;40450;55.848;-3.572;2023-08-17T08:48:58;9;8;
54553;PMS5003;40450;55.848;-3.572;2023-08-17T08:51:28;11;11;
54553;PMS5003;40450;55.848;-3.572;2023-08-17T08:54:00;10;10;
54553;PMS5003;40450;55.848;-3.572;2023-08-17T08:56:29;8;8;
54553;PMS5003;40450;55.848;-3.572;2023-08-17T08:59:00;8;8;
54553;PMS5003;40450;55.848;-3.572;2023-08-17T09:01:30;11;10;
54553;PMS5003;40450;55.848;-3.572;2023-08-17T09:04:00;10;9;
54553;PMS5003;40450;55.848;-3.572;2023-08-17T09:06:30;14;10;
54553;PMS5003;40450;55.848;-3.572;2023-08-17T09:09:01;13;11;
54553;PMS5003;40450;55.848;-3.572;2023-08-17T09:11:31;12;12;
54553;PMS5003;40450;55.848;-3.572;2023-08-17T09:14:02;9;9;
54553;PMS5003;40450;55.848;-3.572;2023-08-17T09:16:32;9;9;
54553;PMS5003;40450;55.848;-3.572;2023-08-17T09:19:02;12;10;
54553;PMS5003;40450;55.848;-3.572;2023-08-17T09:21:33;13;10;
54553;PMS5003;40450;55.848;-3.572;2023-08-17T09:24:03;8;6;
54553;PMS5003;40450;55.848;-3.572;2023-08-17T09:26:33;10;10;
54553;PMS5003;40450;55.848;-3.572;2023-08-17T09:31:34;8;7;
54553;PMS5003;40450;55.848;-3.572;2023-08-17T09:34:05;12;9;
54553;PMS5003;40450;55.848;-3.572;2023-08-17T09:36:35;10;10;
54553;PMS5003;40450;55.848;-3.572;2023-08-17T09:39:05;12;11;
54553;PMS5003;40450;55.848;-3.572;2023-08-17T09:41:40;17;14;
54553;PMS5003;40450;55.848;-3.572;2023-08-17T09:44:07;11;11;
54553;PMS5003;40450;55.848;-3.572;2023-08-17T09:46:37;13;11;
54553;PMS5003;40450;55.848;-3.572;2023-08-17T09:49:07;13;10;
54553;PMS5003;40450;55.848;-3.572;2023-08-17T09:51:37;11;10;
54553;PMS5003;40450;55.848;-3.572;2023-08-17T09:54:09;10;10;
54553;PMS5003;40450;55.848;-3.572;2023-08-17T09:56:39;7;7;
54553;PMS5003;40450;55.848;-3.572;2023-08-17T09:59:09;10;7;
54553;PMS5003;40450;55.848;-3.572;2023-08-17T10:01:40;8;8;
54553;PMS5003;40450;55.848;-3.572;2023-08-17T10:04:11;11;10;
54553;PMS5003;40450;55.848;-3.572;2023-08-17T10:06:41;14;11;
54553;PMS5003;40450;55.848;-3.572;2023-08-17T10:09:11;9;9;
54553;PMS5003;40450;55.848;-3.572;2023-08-17T10:11:41;9;9;
54553;PMS5003;40450;55.848;-3.572;2023-08-17T10:14:13;6;6;
54553;PMS5003;40450;55.848;-3.572;2023-08-17T10:16:43;9;8;
54553;PMS5003;40450;55.848;-3.572;2023-08-17T10:19:13;8;8;
54553;PMS5003;40450;55.848;-3.572;2023-08-17T10:21:43;7;5;
54553;PMS5003;40450;55.848;-3.572;2023-08-17T10:24:13;9;8;
54553;PMS5003;40450;55.848;-3.572;2023-08-17T10:26:43;9;9;
54553;PMS5003;40450;55.848;-3.572;2023-08-17T10:29:13;8;8;
54553;PMS5003;40450;55.848;-3.572;2023-08-17T10:31:43;10;10;
54553;PMS5003;40450;55.848;-3.572;2023-08-17T10:34:14;13;10;
54553;PMS5003;40450;55.848;-3.572;2023-08-17T10:36:44;12;8;
54553;PMS5003;40450;55.848;-3.572;2023-08-17T10:39:17;8;8;
54553;PMS5003;40450;55.848;-3.572;2023-08-17T10:41:46;9;8;
54553;PMS5003;40450;55.848;-3.572;2023-08-17T10:44:15;12;9;
54553;PMS5003;40450;55.848;-3.572;2023-08-17T10:46:45;9;9;
54553;PMS5003;40450;55.848;-3.572;2023-08-17T10:54:15;12;11;
54553;PMS5003;40450;55.848;-3.572;2023-08-17T10:56:46;11;8;
54553;PMS5003;40450;55.848;-3.572;2023-08-17T11:01:47;7;7;
54553;PMS5003;40450;55.848;-3.572;2023-08-17T11:04:17;10;9;
54553;PMS5003;40450;55.848;-3.572;2023-08-17T11:06:52;8;8;
54553;PMS5003;40450;55.848;-3.572;2023-08-17T11:09:18;9;8;
54553;PMS5003;40450;55.848;-3.572;2023-08-17T11:11:52;10;8;
54553;PMS5003;40450;55.848;-3.572;2023-08-17T11:14:18;7;7;
54553;PMS5003;40450;55.848;-3.572;2023-08-17T11:16:49;7;6;
54553;PMS5003;40450;55.848;-3.572;2023-08-17T11:19:19;6;6;
54553;PMS5003;40450;55.848;-3.572;2023-08-17T11:21:50;7;7;
54553;PMS5003;40450;55.848;-3.572;2023-08-17T11:24:20;11;8;
54553;PMS5003;40450;55.848;-3.572;2023-08-17T11:26:50;6;6;
54553;PMS5003;40450;55.848;-3.572;2023-08-17T11:29:21;11;9;
54553;PMS5003;40450;55.848;-3.572;2023-08-17T11:31:51;6;6;
54553;PMS5003;40450;55.848;-3.572;2023-08-17T11:34:21;9;8;
54553;PMS5003;40450;55.848;-3.572;2023-08-17T11:36:52;7;7;
54553;PMS5003;40450;55.848;-3.572;2023-08-17T11:39:22;7;6;
54553;PMS5003;40450;55.848;-3.572;2023-08-17T11:41:52;10;9;
54553;PMS5003;40450;55.848;-3.572;2023-08-17T11:44:22;6;6;
54553;PMS5003;40450;55.848;-3.572;2023-08-17T11:46:53;9;7;
54553;PMS5003;40450;55.848;-3.572;2023-08-17T11:49:23;9;8;
54553;PMS5003;40450;55.848;-3.572;2023-08-17T11:51:54;7;7;
54553;PMS5003;40450;55.848;-3.572;2023-08-17T11:54:24;10;8;
54553;PMS5003;40450;55.848;-3.572;2023-08-17T11:56:54;9;8;
54553;PMS5003;40450;55.848;-3.572;2023-08-17T11:59:25;9;9;
54553;PMS5003;40450;55.848;-3.572;2023-08-17T12:01:56;7;7;
54553;PMS5003;40450;55.848;-3.572;2023-08-17T12:04:26;8;7;
54553;PMS5003;40450;55.848;-3.572;2023-08-17T12:06:56;6;6;
54553;PMS5003;40450;55.848;-3.572;2023-08-17T12:09:27;6;5;
54553;PMS5003;40450;55.848;-3.572;2023-08-17T12:11:58;5;5;
54553;PMS5003;40450;55.848;-3.572;2023-08-17T12:14:27;7;7;
54553;PMS5003;40450;55.848;-3.572;2023-08-17T12:16:58;5;5;
54553;PMS5003;40450;55.848;-3.572;2023-08-17T12:19:29;7;7;
54553;PMS5003;40450;55.848;-3.572;2023-08-17T12:21:59;6;6;
54553;PMS5003;40450;55.848;-3.572;2023-08-17T12:24:29;6;6;
54553;PMS5003;40450;55.848;-3.572;2023-08-17T12:26:59;8;8;
54553;PMS5003;40450;55.848;-3.572;2023-08-17T12:29:30;6;6;
54553;PMS5003;40450;55.848;-3.572;2023-08-17T12:32:00;8;6;
54553;PMS5003;40450;55.848;-3.572;2023-08-17T12:34:30;7;6;
54553;PMS5003;40450;55.848;-3.572;2023-08-17T12:37:01;7;7;
54553;PMS5003;40450;55.848;-3.572;2023-08-17T12:39:31;6;6;
54553;PMS5003;40450;55.848;-3.572;2023-08-17T12:42:01;7;7;
54553;PMS5003;40450;55.848;-3.572;2023-08-17T12:44:32;6;5;
54553;PMS5003;40450;55.848;-3.572;2023-08-17T12:47:02;6;6;
54553;PMS5003;40450;55.848;-3.572;2023-08-17T12:49:32;6;6;
54553;PMS5003;40450;55.848;-3.572;2023-08-17T12:52:03;7;7;
54553;PMS5003;40450;55.848;-3.572;2023-08-17T12:54:33;6;6;
54553;PMS5003;40450;55.848;-3.572;2023-08-17T12:57:03;5;5;
54553;PMS5003;40450;55.848;-3.572;2023-08-17T12:59:33;5;5;
54553;PMS5003;40450;55.848;-3.572;2023-08-17T13:02:04;6;6;
54553;PMS5003;40450;55.848;-3.572;2023-08-17T13:04:34;7;6;
54553;PMS5003;40450;55.848;-3.572;2023-08-17T13:07:05;6;5;
54553;PMS5003;40450;55.848;-3.572;2023-08-17T13:09:35;6;6;
54553;PMS5003;40450;55.848;-3.572;2023-08-17T13:12:06;7;7;
54553;PMS5003;40450;55.848;-3.572;2023-08-17T13:14:36;6;5;
54553;PMS5003;40450;55.848;-3.572;2023-08-17T13:17:07;4;4;
54553;PMS5003;40450;55.848;-3.572;2023-08-17T13:19:37;5;5;
54553;PMS5003;40450;55.848;-3.572;2023-08-17T13:22:08;3;3;
54553;PMS5003;40450;55.848;-3.572;2023-08-17T13:24:38;8;8;
54553;PMS5003;40450;55.848;-3.572;2023-08-17T13:27:08;4;4;
54553;PMS5003;40450;55.848;-3.572;2023-08-17T13:29:38;6;4;
54553;PMS5003;40450;55.848;-3.572;2023-08-17T13:32:09;4;4;
54553;PMS5003;40450;55.848;-3.572;2023-08-17T13:34:39;5;5;
54553;PMS5003;40450;55.848;-3.572;2023-08-17T13:37:09;4;4;
54553;PMS5003;40450;55.848;-3.572;2023-08-17T13:39:40;4;4;
54553;PMS5003;40450;55.848;-3.572;2023-08-17T13:42:11;5;4;
54553;PMS5003;40450;55.848;-3.572;2023-08-17T13:44:41;5;5;
54553;PMS5003;40450;55.848;-3.572;2023-08-17T13:47:11;4;4;
54553;PMS5003;40450;55.848;-3.572;2023-08-17T13:49:42;4;4;
54553;PMS5003;40450;55.848;-3.572;2023-08-17T13:52:12;5;5;
54553;PMS5003;40450;55.848;-3.572;2023-08-17T13:54:42;3;3;
54553;PMS5003;40450;55.848;-3.572;2023-08-17T13:57:13;4;4;
54553;PMS5003;40450;55.848;-3.572;2023-08-17T13:59:43;6;6;
54553;PMS5003;40450;55.848;-3.572;2023-08-17T14:02:13;5;5;
54553;PMS5003;40450;55.848;-3.572;2023-08-17T14:04:44;4;4;
54553;PMS5003;40450;55.848;-3.572;2023-08-17T14:07:14;5;5;
54553;PMS5003;40450;55.848;-3.572;2023-08-17T14:09:44;4;4;
54553;PMS5003;40450;55.848;-3.572;2023-08-17T14:12:14;5;5;
54553;PMS5003;40450;55.848;-3.572;2023-08-17T14:14:45;8;6;
54553;PMS5003;40450;55.848;-3.572;2023-08-17T14:17:15;8;7;
54553;PMS5003;40450;55.848;-3.572;2023-08-17T14:19:45;6;5;
54553;PMS5003;40450;55.848;-3.572;2023-08-17T14:22:16;5;5;
54553;PMS5003;40450;55.848;-3.572;2023-08-17T14:24:46;8;7;
54553;PMS5003;40450;55.848;-3.572;2023-08-17T14:27:16;6;5;
54553;PMS5003;40450;55.848;-3.572;2023-08-17T14:29:47;4;4;
54553;PMS5003;40450;55.848;-3.572;2023-08-17T14:32:17;6;5;
54553;PMS5003;40450;55.848;-3.572;2023-08-17T14:34:47;3;3;
54553;PMS5003;40450;55.848;-3.572;2023-08-17T14:37:18;7;5;
54553;PMS5003;40450;55.848;-3.572;2023-08-17T14:39:48;4;4;
54553;PMS5003;40450;55.848;-3.572;2023-08-17T14:42:18;6;6;
54553;PMS5003;40450;55.848;-3.572;2023-08-17T14:44:49;7;7;
54553;PMS5003;40450;55.848;-3.572;2023-08-17T14:47:19;4;4;
54553;PMS5003;40450;55.848;-3.572;2023-08-17T14:49:49;4;4;
54553;PMS5003;40450;55.848;-3.572;2023-08-17T14:52:20;6;5;
54553;PMS5003;40450;55.848;-3.572;2023-08-17T14:54:50;6;5;
54553;PMS5003;40450;55.848;-3.572;2023-08-17T14:57:20;5;5;
54553;PMS5003;40450;55.848;-3.572;2023-08-17T14:59:50;6;5;
54553;PMS5003;40450;55.848;-3.572;2023-08-17T15:02:21;4;4;
54553;PMS5003;40450;55.848;-3.572;2023-08-17T15:04:51;8;8;
54553;PMS5003;40450;55.848;-3.572;2023-08-17T15:07:21;2;2;
54553;PMS5003;40450;55.848;-3.572;2023-08-17T15:09:52;3;3;
54553;PMS5003;40450;55.848;-3.572;2023-08-17T15:12:22;5;5;
54553;PMS5003;40450;55.848;-3.572;2023-08-17T15:14:52;6;6;
54553;PMS5003;40450;55.848;-3.572;2023-08-17T15:17:23;5;5;
54553;PMS5003;40450;55.848;-3.572;2023-08-17T15:19:53;4;4;
54553;PMS5003;40450;55.848;-3.572;2023-08-17T15:22:23;4;4;
54553;PMS5003;40450;55.848;-3.572;2023-08-17T15:24:54;5;4;
54553;PMS5003;40450;55.848;-3.572;2023-08-17T15:27:24;4;4;
54553;PMS5003;40450;55.848;-3.572;2023-08-17T15:29:54;2;2;
54553;PMS5003;40450;55.848;-3.572;2023-08-17T15:32:24;5;4;
54553;PMS5003;40450;55.848;-3.572;2023-08-17T15:34:55;2;2;
54553;PMS5003;40450;55.848;-3.572;2023-08-17T15:37:25;5;4;
54553;PMS5003;40450;55.848;-3.572;2023-08-17T15:39:55;4;4;
54553;PMS5003;40450;55.848;-3.572;2023-08-17T15:42:26;4;4;
54553;PMS5003;40450;55.848;-3.572;2023-08-17T15:44:56;4;2;
54553;PMS5003;40450;55.848;-3.572;2023-08-17T15:47:26;4;4;
54553;PMS5003;40450;55.848;-3.572;2023-08-17T15:49:57;5;5;
54553;PMS5003;40450;55.848;-3.572;2023-08-17T15:52:27;4;4;
54553;PMS5003;40450;55.848;-3.572;2023-08-17T15:54:57;5;4;
54553;PMS5003;40450;55.848;-3.572;2023-08-17T15:57:28;3;3;
54553;PMS5003;40450;55.848;-3.572;2023-08-17T15:59:58;3;3;
54553;PMS5003;40450;55.848;-3.572;2023-08-17T16:02:28;2;2;
54553;PMS5003;40450;55.848;-3.572;2023-08-17T16:04:58;3;3;
54553;PMS5003;40450;55.848;-3.572;2023-08-17T16:07:29;4;4;
54553;PMS5003;40450;55.848;-3.572;2023-08-17T16:09:59;3;3;
54553;PMS5003;40450;55.848;-3.572;2023-08-17T16:12:30;4;4;
54553;PMS5003;40450;55.848;-3.572;2023-08-17T16:15:00;2;2;
54553;PMS5003;40450;55.848;-3.572;2023-08-17T16:17:31;2;2;
54553;PMS5003;40450;55.848;-3.572;2023-08-17T16:20:01;3;3;
54553;PMS5003;40450;55.848;-3.572;2023-08-17T16:22:31;3;3;
54553;PMS5003;40450;55.848;-3.572;2023-08-17T16:25:02;2;2;
54553;PMS5003;40450;55.848;-3.572;2023-08-17T16:27:32;3;3;
54553;PMS5003;40450;55.848;-3.572;2023-08-17T16:30:02;1;1;
54553;PMS5003;40450;55.848;-3.572;2023-08-17T16:32:32;2;2;
54553;PMS5003;40450;55.848;-3.572;2023-08-17T16:35:03;5;4;
54553;PMS5003;40450;55.848;-3.572;2023-08-17T16:37:33;2;2;
54553;PMS5003;40450;55.848;-3.572;2023-08-17T16:40:04;1;1;
54553;PMS5003;40450;55.848;-3.572;2023-08-17T16:42:34;4;3;
54553;PMS5003;40450;55.848;-3.572;2023-08-17T16:45:04;2;2;
54553;PMS5003;40450;55.848;-3.572;2023-08-17T16:47:34;3;3;
54553;PMS5003;40450;55.848;-3.572;2023-08-17T16:50:05;2;2;